sensor_id;sensor_type;location;lat;lon;timestamp;temperature;humidity
51853;DHT22;37894;53.172;6.598;2023-06-22T00:01:28;17.00;99.90
51853;DHT22;37894;53.172;6.598;2023-06-22T00:03:53;17.00;99.90
51853;DHT22;37894;53.172;6.598;2023-06-22T00:06:19;17.00;99.90
51853;DHT22;37894;53.172;6.598;2023-06-22T00:08:45;17.00;99.90
51853;DHT22;37894;53.172;6.598;2023-06-22T00:11:11;16.90;99.90
51853;DHT22;37894;53.172;6.598;2023-06-22T00:13:38;16.90;99.90
51853;DHT22;37894;53.172;6.598;2023-06-22T00:16:04;16.80;99.90
51853;DHT22;37894;53.172;6.598;2023-06-22T00:18:30;16.80;99.90
51853;DHT22;37894;53.172;6.598;2023-06-22T00:20:55;16.80;99.90
51853;DHT22;37894;53.172;6.598;2023-06-22T00:23:24;16.70;99.90
51853;DHT22;37894;53.172;6.598;2023-06-22T00:25:50;16.70;99.90
51853;DHT22;37894;53.172;6.598;2023-06-22T00:28:16;16.70;99.90
51853;DHT22;37894;53.172;6.598;2023-06-22T00:30:42;16.60;99.90
51853;DHT22;37894;53.172;6.598;2023-06-22T00:33:07;16.60;99.90
51853;DHT22;37894;53.172;6.598;2023-06-22T00:35:34;16.50;99.90
51853;DHT22;37894;53.172;6.598;2023-06-22T00:38:00;16.40;99.90
51853;DHT22;37894;53.172;6.598;2023-06-22T00:40:27;16.40;99.90
51853;DHT22;37894;53.172;6.598;2023-06-22T00:42:54;16.40;99.90
51853;DHT22;37894;53.172;6.598;2023-06-22T00:45:20;16.30;99.90
51853;DHT22;37894;53.172;6.598;2023-06-22T00:47:47;16.30;99.90
51853;DHT22;37894;53.172;6.598;2023-06-22T00:50:18;16.30;99.90
51853;DHT22;37894;53.172;6.598;2023-06-22T00:52:53;16.20;99.90
51853;DHT22;37894;53.172;6.598;2023-06-22T00:55:22;16.20;99.90
51853;DHT22;37894;53.172;6.598;2023-06-22T00:57:49;16.20;99.90
51853;DHT22;37894;53.172;6.598;2023-06-22T01:00:15;18.10;99.90
51853;DHT22;37894;53.172;6.598;2023-06-22T01:02:46;16.10;99.90
51853;DHT22;37894;53.172;6.598;2023-06-22T01:05:13;16.10;99.90
51853;DHT22;37894;53.172;6.598;2023-06-22T01:08:03;16.00;99.90
51853;DHT22;37894;53.172;6.598;2023-06-22T01:16:20;16.00;99.90
51853;DHT22;37894;53.172;6.598;2023-06-22T01:18:50;16.00;99.90
51853;DHT22;37894;53.172;6.598;2023-06-22T01:21:19;16.00;99.90
51853;DHT22;37894;53.172;6.598;2023-06-22T01:24:08;16.00;99.90
51853;DHT22;37894;53.172;6.598;2023-06-22T01:26:43;16.00;99.90
51853;DHT22;37894;53.172;6.598;2023-06-22T01:29:15;15.90;99.90
51853;DHT22;37894;53.172;6.598;2023-06-22T01:31:42;15.90;99.90
51853;DHT22;37894;53.172;6.598;2023-06-22T01:34:11;15.90;99.90
51853;DHT22;37894;53.172;6.598;2023-06-22T01:36:39;15.90;99.90
51853;DHT22;37894;53.172;6.598;2023-06-22T01:39:06;15.90;99.90
51853;DHT22;37894;53.172;6.598;2023-06-22T01:41:37;15.80;99.90
51853;DHT22;37894;53.172;6.598;2023-06-22T01:44:05;15.80;99.90
51853;DHT22;37894;53.172;6.598;2023-06-22T01:46:34;15.80;99.90
51853;DHT22;37894;53.172;6.598;2023-06-22T01:49:00;15.70;99.90
51853;DHT22;37894;53.172;6.598;2023-06-22T01:51:26;15.70;99.90
51853;DHT22;37894;53.172;6.598;2023-06-22T01:53:52;15.70;99.90
51853;DHT22;37894;53.172;6.598;2023-06-22T01:56:17;15.80;99.90
51853;DHT22;37894;53.172;6.598;2023-06-22T02:02:10;15.80;99.90
51853;DHT22;37894;53.172;6.598;2023-06-22T02:05:14;15.80;99.90
51853;DHT22;37894;53.172;6.598;2023-06-22T02:07:46;15.80;99.90
51853;DHT22;37894;53.172;6.598;2023-06-22T02:10:14;15.70;99.90
51853;DHT22;37894;53.172;6.598;2023-06-22T02:12:42;15.70;99.90
51853;DHT22;37894;53.172;6.598;2023-06-22T02:15:09;15.70;99.90
51853;DHT22;37894;53.172;6.598;2023-06-22T02:17:35;15.80;99.90
51853;DHT22;37894;53.172;6.598;2023-06-22T02:20:04;15.80;99.90
51853;DHT22;37894;53.172;6.598;2023-06-22T02:22:34;15.80;99.90
51853;DHT22;37894;53.172;6.598;2023-06-22T02:25:00;15.80;99.90
51853;DHT22;37894;53.172;6.598;2023-06-22T02:27:25;15.80;99.90
51853;DHT22;37894;53.172;6.598;2023-06-22T02:29:51;15.80;99.90
51853;DHT22;37894;53.172;6.598;2023-06-22T02:32:17;15.80;99.90
51853;DHT22;37894;53.172;6.598;2023-06-22T02:34:43;15.80;99.90
51853;DHT22;37894;53.172;6.598;2023-06-22T02:37:13;15.80;99.90
51853;DHT22;37894;53.172;6.598;2023-06-22T02:39:42;15.80;99.90
51853;DHT22;37894;53.172;6.598;2023-06-22T02:42:08;15.80;99.90
51853;DHT22;37894;53.172;6.598;2023-06-22T02:44:36;15.80;99.90
51853;DHT22;37894;53.172;6.598;2023-06-22T02:47:02;15.80;99.90
51853;DHT22;37894;53.172;6.598;2023-06-22T02:49:28;15.80;99.90
51853;DHT22;37894;53.172;6.598;2023-06-22T02:51:53;15.80;99.90
51853;DHT22;37894;53.172;6.598;2023-06-22T02:54:20;15.80;99.90
51853;DHT22;37894;53.172;6.598;2023-06-22T02:56:46;15.70;99.90
51853;DHT22;37894;53.172;6.598;2023-06-22T02:59:13;15.70;99.90
51853;DHT22;37894;53.172;6.598;2023-06-22T03:01:39;15.70;99.90
51853;DHT22;37894;53.172;6.598;2023-06-22T03:04:08;15.60;99.90
51853;DHT22;37894;53.172;6.598;2023-06-22T03:06:34;15.60;99.90
51853;DHT22;37894;53.172;6.598;2023-06-22T03:09:02;15.60;99.90
51853;DHT22;37894;53.172;6.598;2023-06-22T03:11:30;15.60;99.90
51853;DHT22;37894;53.172;6.598;2023-06-22T03:13:56;15.60;99.90
51853;DHT22;37894;53.172;6.598;2023-06-22T03:16:22;15.50;99.90
51853;DHT22;37894;53.172;6.598;2023-06-22T03:18:48;15.50;99.90
51853;DHT22;37894;53.172;6.598;2023-06-22T03:21:13;15.40;99.90
51853;DHT22;37894;53.172;6.598;2023-06-22T03:23:41;15.40;99.90
51853;DHT22;37894;53.172;6.598;2023-06-22T03:26:08;15.30;99.90
51853;DHT22;37894;53.172;6.598;2023-06-22T03:28:34;15.40;99.90
51853;DHT22;37894;53.172;6.598;2023-06-22T03:30:59;15.40;99.90
51853;DHT22;37894;53.172;6.598;2023-06-22T03:33:25;15.40;99.90
51853;DHT22;37894;53.172;6.598;2023-06-22T03:35:51;15.40;99.90
51853;DHT22;37894;53.172;6.598;2023-06-22T03:38:17;15.40;99.90
51853;DHT22;37894;53.172;6.598;2023-06-22T03:40:43;15.40;99.90
51853;DHT22;37894;53.172;6.598;2023-06-22T03:46:49;15.30;99.90
51853;DHT22;37894;53.172;6.598;2023-06-22T03:49:15;15.30;99.90
51853;DHT22;37894;53.172;6.598;2023-06-22T03:51:41;15.30;99.90
51853;DHT22;37894;53.172;6.598;2023-06-22T03:54:07;15.30;99.90
51853;DHT22;37894;53.172;6.598;2023-06-22T03:56:32;15.40;99.90
51853;DHT22;37894;53.172;6.598;2023-06-22T03:58:58;15.40;99.90
51853;DHT22;37894;53.172;6.598;2023-06-22T04:01:23;15.40;99.90
51853;DHT22;37894;53.172;6.598;2023-06-22T04:03:49;15.50;99.90
51853;DHT22;37894;53.172;6.598;2023-06-22T04:06:15;15.50;99.90
51853;DHT22;37894;53.172;6.598;2023-06-22T04:08:41;15.60;99.90
51853;DHT22;37894;53.172;6.598;2023-06-22T04:11:06;15.70;99.90
51853;DHT22;37894;53.172;6.598;2023-06-22T04:13:32;15.70;99.90
51853;DHT22;37894;53.172;6.598;2023-06-22T04:15:57;15.80;99.90
51853;DHT22;37894;53.172;6.598;2023-06-22T04:18:23;15.90;99.90
51853;DHT22;37894;53.172;6.598;2023-06-22T04:20:49;15.90;99.90
51853;DHT22;37894;53.172;6.598;2023-06-22T04:23:15;16.00;99.90
51853;DHT22;37894;53.172;6.598;2023-06-22T04:25:40;16.00;99.90
51853;DHT22;37894;53.172;6.598;2023-06-22T04:28:06;16.00;99.90
51853;DHT22;37894;53.172;6.598;2023-06-22T04:30:33;16.10;99.90
51853;DHT22;37894;53.172;6.598;2023-06-22T04:32:58;16.10;99.90
51853;DHT22;37894;53.172;6.598;2023-06-22T04:35:25;16.10;99.90
51853;DHT22;37894;53.172;6.598;2023-06-22T04:37:52;16.10;99.90
51853;DHT22;37894;53.172;6.598;2023-06-22T04:40:23;16.20;99.90
51853;DHT22;37894;53.172;6.598;2023-06-22T04:42:49;16.20;99.90
51853;DHT22;37894;53.172;6.598;2023-06-22T04:45:18;16.30;99.90
51853;DHT22;37894;53.172;6.598;2023-06-22T04:47:44;16.40;99.90
51853;DHT22;37894;53.172;6.598;2023-06-22T04:50:14;16.50;99.90
51853;DHT22;37894;53.172;6.598;2023-06-22T04:52:40;16.50;99.90
51853;DHT22;37894;53.172;6.598;2023-06-22T04:55:07;16.60;99.90
51853;DHT22;37894;53.172;6.598;2023-06-22T04:57:34;16.70;99.90
51853;DHT22;37894;53.172;6.598;2023-06-22T05:00:00;16.70;99.90
51853;DHT22;37894;53.172;6.598;2023-06-22T05:02:39;16.80;99.90
51853;DHT22;37894;53.172;6.598;2023-06-22T05:05:05;16.90;99.90
51853;DHT22;37894;53.172;6.598;2023-06-22T05:07:36;17.00;99.90
51853;DHT22;37894;53.172;6.598;2023-06-22T05:10:05;17.10;99.90
51853;DHT22;37894;53.172;6.598;2023-06-22T05:12:30;17.20;99.90
51853;DHT22;37894;53.172;6.598;2023-06-22T05:14:56;17.30;99.90
51853;DHT22;37894;53.172;6.598;2023-06-22T05:17:22;17.30;99.90
51853;DHT22;37894;53.172;6.598;2023-06-22T05:19:48;17.40;99.90
51853;DHT22;37894;53.172;6.598;2023-06-22T05:22:18;17.40;99.90
51853;DHT22;37894;53.172;6.598;2023-06-22T05:24:43;17.50;99.90
51853;DHT22;37894;53.172;6.598;2023-06-22T05:27:09;17.60;99.90
51853;DHT22;37894;53.172;6.598;2023-06-22T05:29:36;17.60;99.90
51853;DHT22;37894;53.172;6.598;2023-06-22T05:32:03;17.80;99.90
51853;DHT22;37894;53.172;6.598;2023-06-22T05:34:29;17.90;99.90
51853;DHT22;37894;53.172;6.598;2023-06-22T05:36:54;18.00;99.90
51853;DHT22;37894;53.172;6.598;2023-06-22T05:39:20;18.10;99.90
51853;DHT22;37894;53.172;6.598;2023-06-22T05:41:46;18.20;99.90
51853;DHT22;37894;53.172;6.598;2023-06-22T05:44:12;18.30;99.90
51853;DHT22;37894;53.172;6.598;2023-06-22T05:46:41;18.40;99.90
51853;DHT22;37894;53.172;6.598;2023-06-22T05:49:14;18.50;99.90
51853;DHT22;37894;53.172;6.598;2023-06-22T05:51:41;18.60;99.90
51853;DHT22;37894;53.172;6.598;2023-06-22T05:54:07;18.70;99.90
51853;DHT22;37894;53.172;6.598;2023-06-22T05:56:38;18.90;99.90
51853;DHT22;37894;53.172;6.598;2023-06-22T05:59:05;19.00;99.90
51853;DHT22;37894;53.172;6.598;2023-06-22T06:01:30;19.10;99.90
51853;DHT22;37894;53.172;6.598;2023-06-22T06:04:01;19.20;99.90
51853;DHT22;37894;53.172;6.598;2023-06-22T06:06:27;19.30;99.90
51853;DHT22;37894;53.172;6.598;2023-06-22T06:08:54;19.40;99.90
51853;DHT22;37894;53.172;6.598;2023-06-22T06:11:20;19.50;99.90
51853;DHT22;37894;53.172;6.598;2023-06-22T06:13:46;19.50;99.90
51853;DHT22;37894;53.172;6.598;2023-06-22T06:16:12;19.70;99.90
51853;DHT22;37894;53.172;6.598;2023-06-22T06:18:38;19.80;99.90
51853;DHT22;37894;53.172;6.598;2023-06-22T06:21:04;19.90;99.90
51853;DHT22;37894;53.172;6.598;2023-06-22T06:23:29;20.00;99.90
51853;DHT22;37894;53.172;6.598;2023-06-22T06:25:55;20.20;99.90
51853;DHT22;37894;53.172;6.598;2023-06-22T06:28:21;20.30;99.90
51853;DHT22;37894;53.172;6.598;2023-06-22T06:30:47;20.30;99.90
51853;DHT22;37894;53.172;6.598;2023-06-22T06:33:13;20.30;99.90
51853;DHT22;37894;53.172;6.598;2023-06-22T06:35:39;20.40;99.90
51853;DHT22;37894;53.172;6.598;2023-06-22T06:38:05;20.40;99.90
51853;DHT22;37894;53.172;6.598;2023-06-22T06:40:30;20.50;99.90
51853;DHT22;37894;53.172;6.598;2023-06-22T06:42:56;20.60;99.90
51853;DHT22;37894;53.172;6.598;2023-06-22T06:45:23;20.70;99.90
51853;DHT22;37894;53.172;6.598;2023-06-22T06:47:49;20.80;99.90
51853;DHT22;37894;53.172;6.598;2023-06-22T06:50:16;20.90;99.90
51853;DHT22;37894;53.172;6.598;2023-06-22T06:52:41;20.90;99.90
51853;DHT22;37894;53.172;6.598;2023-06-22T06:55:08;21.00;99.90
51853;DHT22;37894;53.172;6.598;2023-06-22T06:57:40;21.10;99.90
51853;DHT22;37894;53.172;6.598;2023-06-22T07:00:08;21.30;99.90
51853;DHT22;37894;53.172;6.598;2023-06-22T07:02:43;21.30;99.90
51853;DHT22;37894;53.172;6.598;2023-06-22T07:05:10;21.40;99.90
51853;DHT22;37894;53.172;6.598;2023-06-22T07:07:36;21.40;99.90
51853;DHT22;37894;53.172;6.598;2023-06-22T07:10:03;21.40;99.90
51853;DHT22;37894;53.172;6.598;2023-06-22T07:12:29;21.50;99.90
51853;DHT22;37894;53.172;6.598;2023-06-22T07:15:04;21.60;99.90
51853;DHT22;37894;53.172;6.598;2023-06-22T07:17:30;21.70;99.90
51853;DHT22;37894;53.172;6.598;2023-06-22T07:19:56;21.80;99.90
51853;DHT22;37894;53.172;6.598;2023-06-22T07:22:22;23.40;99.90
51853;DHT22;37894;53.172;6.598;2023-06-22T07:24:47;22.00;99.90
51853;DHT22;37894;53.172;6.598;2023-06-22T07:27:14;22.00;99.90
51853;DHT22;37894;53.172;6.598;2023-06-22T07:29:43;22.10;99.90
51853;DHT22;37894;53.172;6.598;2023-06-22T07:32:09;22.10;99.90
51853;DHT22;37894;53.172;6.598;2023-06-22T07:34:34;22.20;99.90
51853;DHT22;37894;53.172;6.598;2023-06-22T07:37:00;22.30;99.90
51853;DHT22;37894;53.172;6.598;2023-06-22T07:39:26;22.30;99.90
51853;DHT22;37894;53.172;6.598;2023-06-22T07:41:52;22.30;99.90
51853;DHT22;37894;53.172;6.598;2023-06-22T07:44:18;22.40;99.90
51853;DHT22;37894;53.172;6.598;2023-06-22T07:46:44;22.50;99.90
51853;DHT22;37894;53.172;6.598;2023-06-22T07:49:09;22.50;99.90
51853;DHT22;37894;53.172;6.598;2023-06-22T07:51:35;22.50;99.90
51853;DHT22;37894;53.172;6.598;2023-06-22T07:54:01;22.60;99.90
51853;DHT22;37894;53.172;6.598;2023-06-22T07:56:27;22.70;99.90
51853;DHT22;37894;53.172;6.598;2023-06-22T07:58:52;22.80;99.90
51853;DHT22;37894;53.172;6.598;2023-06-22T08:01:18;23.00;99.90
51853;DHT22;37894;53.172;6.598;2023-06-22T08:03:48;23.10;99.90
51853;DHT22;37894;53.172;6.598;2023-06-22T08:06:14;23.10;99.90
51853;DHT22;37894;53.172;6.598;2023-06-22T08:08:39;23.20;99.90
51853;DHT22;37894;53.172;6.598;2023-06-22T08:11:05;23.20;99.90
51853;DHT22;37894;53.172;6.598;2023-06-22T08:13:31;23.20;99.90
51853;DHT22;37894;53.172;6.598;2023-06-22T08:15:57;23.30;99.90
51853;DHT22;37894;53.172;6.598;2023-06-22T08:18:23;23.40;99.90
51853;DHT22;37894;53.172;6.598;2023-06-22T08:20:48;23.50;99.90
51853;DHT22;37894;53.172;6.598;2023-06-22T08:23:15;23.50;99.90
51853;DHT22;37894;53.172;6.598;2023-06-22T08:25:41;23.50;99.90
51853;DHT22;37894;53.172;6.598;2023-06-22T08:28:06;23.60;99.90
51853;DHT22;37894;53.172;6.598;2023-06-22T08:30:32;23.80;99.90
51853;DHT22;37894;53.172;6.598;2023-06-22T08:32:58;23.90;99.90
51853;DHT22;37894;53.172;6.598;2023-06-22T08:35:24;24.00;99.90
51853;DHT22;37894;53.172;6.598;2023-06-22T08:37:50;24.00;99.90
51853;DHT22;37894;53.172;6.598;2023-06-22T08:40:20;24.10;99.90
51853;DHT22;37894;53.172;6.598;2023-06-22T08:42:47;24.20;99.90
51853;DHT22;37894;53.172;6.598;2023-06-22T08:45:13;24.30;99.90
51853;DHT22;37894;53.172;6.598;2023-06-22T08:47:40;24.30;99.90
51853;DHT22;37894;53.172;6.598;2023-06-22T08:50:10;24.40;99.90
51853;DHT22;37894;53.172;6.598;2023-06-22T08:52:36;24.50;99.90
51853;DHT22;37894;53.172;6.598;2023-06-22T08:55:03;24.50;99.90
51853;DHT22;37894;53.172;6.598;2023-06-22T08:57:28;24.60;99.90
51853;DHT22;37894;53.172;6.598;2023-06-22T08:59:55;24.70;99.90
51853;DHT22;37894;53.172;6.598;2023-06-22T09:02:24;24.90;99.90
51853;DHT22;37894;53.172;6.598;2023-06-22T09:04:50;24.90;99.90
51853;DHT22;37894;53.172;6.598;2023-06-22T09:07:24;25.00;99.90
51853;DHT22;37894;53.172;6.598;2023-06-22T09:09:51;25.10;99.90
51853;DHT22;37894;53.172;6.598;2023-06-22T09:12:18;25.20;99.90
51853;DHT22;37894;53.172;6.598;2023-06-22T09:14:51;25.30;99.90
51853;DHT22;37894;53.172;6.598;2023-06-22T09:17:17;25.40;99.90
51853;DHT22;37894;53.172;6.598;2023-06-22T09:19:42;25.50;99.90
51853;DHT22;37894;53.172;6.598;2023-06-22T09:22:08;25.60;99.90
51853;DHT22;37894;53.172;6.598;2023-06-22T09:24:34;25.60;99.90
51853;DHT22;37894;53.172;6.598;2023-06-22T09:27:00;25.70;99.90
51853;DHT22;37894;53.172;6.598;2023-06-22T09:29:25;25.60;99.90
51853;DHT22;37894;53.172;6.598;2023-06-22T09:31:51;25.60;99.90
51853;DHT22;37894;53.172;6.598;2023-06-22T09:34:19;25.50;99.90
51853;DHT22;37894;53.172;6.598;2023-06-22T09:36:46;25.60;99.90
51853;DHT22;37894;53.172;6.598;2023-06-22T09:39:12;25.70;99.90
51853;DHT22;37894;53.172;6.598;2023-06-22T09:41:37;25.80;99.90
51853;DHT22;37894;53.172;6.598;2023-06-22T09:44:03;25.90;99.90
51853;DHT22;37894;53.172;6.598;2023-06-22T09:46:29;25.90;99.80
51853;DHT22;37894;53.172;6.598;2023-06-22T09:48:54;25.80;99.90
51853;DHT22;37894;53.172;6.598;2023-06-22T09:51:20;25.80;99.90
51853;DHT22;37894;53.172;6.598;2023-06-22T09:53:47;25.80;99.90
51853;DHT22;37894;53.172;6.598;2023-06-22T09:56:13;25.90;99.90
51853;DHT22;37894;53.172;6.598;2023-06-22T09:58:44;25.90;99.70
51853;DHT22;37894;53.172;6.598;2023-06-22T10:01:10;25.90;99.30
51853;DHT22;37894;53.172;6.598;2023-06-22T10:03:36;26.10;99.90
51853;DHT22;37894;53.172;6.598;2023-06-22T10:06:02;26.20;99.90
51853;DHT22;37894;53.172;6.598;2023-06-22T10:08:28;26.40;99.90
51853;DHT22;37894;53.172;6.598;2023-06-22T10:10:54;26.50;99.80
51853;DHT22;37894;53.172;6.598;2023-06-22T10:13:19;26.70;99.40
51853;DHT22;37894;53.172;6.598;2023-06-22T10:15:45;26.90;99.00
51853;DHT22;37894;53.172;6.598;2023-06-22T10:18:18;27.00;98.80
51853;DHT22;37894;53.172;6.598;2023-06-22T10:20:47;27.00;96.80
51853;DHT22;37894;53.172;6.598;2023-06-22T10:23:12;27.00;97.60
51853;DHT22;37894;53.172;6.598;2023-06-22T10:25:38;27.10;97.30
51853;DHT22;37894;53.172;6.598;2023-06-22T10:28:04;27.10;96.70
51853;DHT22;37894;53.172;6.598;2023-06-22T10:30:29;27.10;96.80
51853;DHT22;37894;53.172;6.598;2023-06-22T10:32:55;27.10;97.10
51853;DHT22;37894;53.172;6.598;2023-06-22T10:35:21;27.20;97.00
51853;DHT22;37894;53.172;6.598;2023-06-22T10:37:48;27.30;96.80
51853;DHT22;37894;53.172;6.598;2023-06-22T10:40:14;27.30;96.80
51853;DHT22;37894;53.172;6.598;2023-06-22T10:42:41;27.40;97.10
51853;DHT22;37894;53.172;6.598;2023-06-22T10:45:07;27.50;96.80
51853;DHT22;37894;53.172;6.598;2023-06-22T10:47:34;27.50;95.80
51853;DHT22;37894;53.172;6.598;2023-06-22T10:49:59;27.60;96.40
51853;DHT22;37894;53.172;6.598;2023-06-22T10:52:25;27.70;96.60
51853;DHT22;37894;53.172;6.598;2023-06-22T10:54:51;27.80;96.10
51853;DHT22;37894;53.172;6.598;2023-06-22T10:57:18;27.80;95.40
51853;DHT22;37894;53.172;6.598;2023-06-22T10:59:44;27.80;95.10
51853;DHT22;37894;53.172;6.598;2023-06-22T11:02:09;27.80;95.30
51853;DHT22;37894;53.172;6.598;2023-06-22T11:04:35;27.90;95.00
51853;DHT22;37894;53.172;6.598;2023-06-22T11:07:01;28.00;94.00
51853;DHT22;37894;53.172;6.598;2023-06-22T11:09:27;28.00;92.80
51853;DHT22;37894;53.172;6.598;2023-06-22T11:11:53;28.00;93.30
51853;DHT22;37894;53.172;6.598;2023-06-22T11:14:19;28.00;93.10
51853;DHT22;37894;53.172;6.598;2023-06-22T11:16:45;28.00;92.80
51853;DHT22;37894;53.172;6.598;2023-06-22T11:19:12;27.80;92.70
51853;DHT22;37894;53.172;6.598;2023-06-22T11:21:38;27.90;92.70
51853;DHT22;37894;53.172;6.598;2023-06-22T11:24:09;28.00;92.60
51853;DHT22;37894;53.172;6.598;2023-06-22T11:26:35;28.20;92.00
51853;DHT22;37894;53.172;6.598;2023-06-22T11:29:02;28.20;91.20
51853;DHT22;37894;53.172;6.598;2023-06-22T11:31:31;28.30;91.50
51853;DHT22;37894;53.172;6.598;2023-06-22T11:33:57;28.30;90.90
51853;DHT22;37894;53.172;6.598;2023-06-22T11:36:23;28.20;91.00
51853;DHT22;37894;53.172;6.598;2023-06-22T11:38:49;28.20;90.90
51853;DHT22;37894;53.172;6.598;2023-06-22T11:41:18;28.20;90.50
51853;DHT22;37894;53.172;6.598;2023-06-22T11:43:47;28.10;90.10
51853;DHT22;37894;53.172;6.598;2023-06-22T11:46:13;28.10;91.50
51853;DHT22;37894;53.172;6.598;2023-06-22T11:48:38;28.10;91.30
51853;DHT22;37894;53.172;6.598;2023-06-22T11:51:04;28.10;90.30
51853;DHT22;37894;53.172;6.598;2023-06-22T11:53:32;27.90;90.10
51853;DHT22;37894;53.172;6.598;2023-06-22T11:55:57;27.80;90.00
51853;DHT22;37894;53.172;6.598;2023-06-22T11:58:23;27.60;90.80
51853;DHT22;37894;53.172;6.598;2023-06-22T12:00:49;27.60;91.20
51853;DHT22;37894;53.172;6.598;2023-06-22T12:03:15;27.60;91.20
51853;DHT22;37894;53.172;6.598;2023-06-22T12:05:42;27.70;91.30
51853;DHT22;37894;53.172;6.598;2023-06-22T12:08:07;27.60;91.40
51853;DHT22;37894;53.172;6.598;2023-06-22T12:10:33;27.60;92.10
51853;DHT22;37894;53.172;6.598;2023-06-22T12:12:59;27.60;92.00
51853;DHT22;37894;53.172;6.598;2023-06-22T12:15:26;27.60;91.80
51853;DHT22;37894;53.172;6.598;2023-06-22T12:17:52;27.60;91.60
51853;DHT22;37894;53.172;6.598;2023-06-22T12:20:18;27.60;91.80
51853;DHT22;37894;53.172;6.598;2023-06-22T12:22:44;27.60;91.70
51853;DHT22;37894;53.172;6.598;2023-06-22T12:25:10;27.60;91.80
51853;DHT22;37894;53.172;6.598;2023-06-22T12:27:36;27.60;91.70
51853;DHT22;37894;53.172;6.598;2023-06-22T12:30:03;27.50;91.40
51853;DHT22;37894;53.172;6.598;2023-06-22T12:32:29;27.40;91.60
51853;DHT22;37894;53.172;6.598;2023-06-22T12:34:55;27.40;92.30
51853;DHT22;37894;53.172;6.598;2023-06-22T12:37:22;27.50;92.20
51853;DHT22;37894;53.172;6.598;2023-06-22T12:39:48;27.40;91.50
51853;DHT22;37894;53.172;6.598;2023-06-22T12:42:14;27.20;91.90
51853;DHT22;37894;53.172;6.598;2023-06-22T12:44:40;27.20;92.00
51853;DHT22;37894;53.172;6.598;2023-06-22T12:47:06;27.20;92.20
51853;DHT22;37894;53.172;6.598;2023-06-22T12:49:34;27.20;92.70
51853;DHT22;37894;53.172;6.598;2023-06-22T12:52:00;27.20;92.20
51853;DHT22;37894;53.172;6.598;2023-06-22T12:54:26;27.10;92.00
51853;DHT22;37894;53.172;6.598;2023-06-22T12:56:52;27.10;92.30
51853;DHT22;37894;53.172;6.598;2023-06-22T12:59:17;27.00;92.70
51853;DHT22;37894;53.172;6.598;2023-06-22T13:01:43;27.00;92.90
51853;DHT22;37894;53.172;6.598;2023-06-22T13:04:11;26.90;93.20
51853;DHT22;37894;53.172;6.598;2023-06-22T13:06:42;26.90;93.10
51853;DHT22;37894;53.172;6.598;2023-06-22T13:09:10;26.90;93.40
51853;DHT22;37894;53.172;6.598;2023-06-22T13:11:35;26.90;93.30
51853;DHT22;37894;53.172;6.598;2023-06-22T13:14:01;26.90;93.40
51853;DHT22;37894;53.172;6.598;2023-06-22T13:16:27;26.90;93.20
51853;DHT22;37894;53.172;6.598;2023-06-22T13:18:52;27.00;93.40
51853;DHT22;37894;53.172;6.598;2023-06-22T13:21:18;27.00;93.10
51853;DHT22;37894;53.172;6.598;2023-06-22T13:23:44;27.00;92.90
51853;DHT22;37894;53.172;6.598;2023-06-22T13:26:09;27.00;93.30
51853;DHT22;37894;53.172;6.598;2023-06-22T13:28:35;26.90;93.30
51853;DHT22;37894;53.172;6.598;2023-06-22T13:31:01;26.90;93.40
51853;DHT22;37894;53.172;6.598;2023-06-22T13:33:26;26.70;93.30
51853;DHT22;37894;53.172;6.598;2023-06-22T13:35:52;26.70;93.10
51853;DHT22;37894;53.172;6.598;2023-06-22T13:38:18;26.70;93.50
51853;DHT22;37894;53.172;6.598;2023-06-22T13:40:44;26.60;93.10
51853;DHT22;37894;53.172;6.598;2023-06-22T13:43:09;26.50;93.00
51853;DHT22;37894;53.172;6.598;2023-06-22T13:45:35;26.40;92.90
51853;DHT22;37894;53.172;6.598;2023-06-22T13:48:01;26.30;93.00
51853;DHT22;37894;53.172;6.598;2023-06-22T13:50:27;26.20;93.60
51853;DHT22;37894;53.172;6.598;2023-06-22T13:52:54;26.20;93.40
51853;DHT22;37894;53.172;6.598;2023-06-22T13:55:20;26.10;93.20
51853;DHT22;37894;53.172;6.598;2023-06-22T13:57:46;26.00;92.80
51853;DHT22;37894;53.172;6.598;2023-06-22T14:00:12;25.80;92.90
51853;DHT22;37894;53.172;6.598;2023-06-22T14:02:38;25.70;93.00
51853;DHT22;37894;53.172;6.598;2023-06-22T14:05:05;25.60;93.40
51853;DHT22;37894;53.172;6.598;2023-06-22T14:07:31;25.60;93.60
51853;DHT22;37894;53.172;6.598;2023-06-22T14:09:57;25.60;93.60
51853;DHT22;37894;53.172;6.598;2023-06-22T14:12:23;25.50;93.70
51853;DHT22;37894;53.172;6.598;2023-06-22T14:14:49;25.40;93.60
51853;DHT22;37894;53.172;6.598;2023-06-22T14:17:15;25.30;93.80
51853;DHT22;37894;53.172;6.598;2023-06-22T14:19:40;25.20;93.70
51853;DHT22;37894;53.172;6.598;2023-06-22T14:22:06;25.10;93.80
51853;DHT22;37894;53.172;6.598;2023-06-22T14:24:32;25.10;93.90
51853;DHT22;37894;53.172;6.598;2023-06-22T14:26:57;25.10;94.10
51853;DHT22;37894;53.172;6.598;2023-06-22T14:29:23;25.10;94.10
51853;DHT22;37894;53.172;6.598;2023-06-22T14:31:49;25.00;94.10
51853;DHT22;37894;53.172;6.598;2023-06-22T14:34:15;25.00;94.20
51853;DHT22;37894;53.172;6.598;2023-06-22T14:36:41;24.90;94.00
51853;DHT22;37894;53.172;6.598;2023-06-22T14:39:08;24.90;94.10
51853;DHT22;37894;53.172;6.598;2023-06-22T14:41:33;24.80;94.10
51853;DHT22;37894;53.172;6.598;2023-06-22T14:43:59;24.80;94.40
51853;DHT22;37894;53.172;6.598;2023-06-22T14:46:25;24.80;94.30
51853;DHT22;37894;53.172;6.598;2023-06-22T14:48:50;24.70;94.30
51853;DHT22;37894;53.172;6.598;2023-06-22T14:51:16;24.70;94.20
51853;DHT22;37894;53.172;6.598;2023-06-22T14:53:44;24.70;94.00
51853;DHT22;37894;53.172;6.598;2023-06-22T14:56:09;24.60;94.00
51853;DHT22;37894;53.172;6.598;2023-06-22T14:58:35;24.50;94.00
51853;DHT22;37894;53.172;6.598;2023-06-22T15:01:02;24.50;94.40
51853;DHT22;37894;53.172;6.598;2023-06-22T15:03:30;24.40;94.20
51853;DHT22;37894;53.172;6.598;2023-06-22T15:05:57;24.40;94.20
51853;DHT22;37894;53.172;6.598;2023-06-22T15:08:24;24.30;94.20
51853;DHT22;37894;53.172;6.598;2023-06-22T15:10:51;24.40;94.40
51853;DHT22;37894;53.172;6.598;2023-06-22T15:13:18;24.30;94.00
51853;DHT22;37894;53.172;6.598;2023-06-22T15:15:47;24.20;94.00
51853;DHT22;37894;53.172;6.598;2023-06-22T15:18:16;24.10;93.80
51853;DHT22;37894;53.172;6.598;2023-06-22T15:20:42;24.10;93.70
51853;DHT22;37894;53.172;6.598;2023-06-22T15:23:12;24.10;93.60
51853;DHT22;37894;53.172;6.598;2023-06-22T15:25:41;24.00;93.40
51853;DHT22;37894;53.172;6.598;2023-06-22T15:28:07;23.80;93.40
51853;DHT22;37894;53.172;6.598;2023-06-22T15:30:33;23.80;93.60
51853;DHT22;37894;53.172;6.598;2023-06-22T15:32:59;23.70;93.00
51853;DHT22;37894;53.172;6.598;2023-06-22T15:35:25;23.60;93.30
51853;DHT22;37894;53.172;6.598;2023-06-22T15:37:51;23.50;93.40
51853;DHT22;37894;53.172;6.598;2023-06-22T15:40:17;23.50;93.60